sensor_id;sensor_type;location;lat;lon;timestamp;P1;durP1;ratioP1;P2;durP2;ratioP2
12048;SDS011;6085;49.452;8.502;2022-12-26T00:01:57;3.17;;;2.88;;
12048;SDS011;6085;49.452;8.502;2022-12-26T00:06:00;4.97;;;2.92;;
12048;SDS011;6085;49.452;8.502;2022-12-26T00:10:02;4.93;;;2.92;;
12048;SDS011;6085;49.452;8.502;2022-12-26T00:14:05;3.22;;;2.95;;
12048;SDS011;6085;49.452;8.502;2022-12-26T00:18:10;3.22;;;2.88;;
12048;SDS011;6085;49.452;8.502;2022-12-26T00:22:12;3.28;;;2.58;;
12048;SDS011;6085;49.452;8.502;2022-12-26T00:26:15;2.80;;;2.60;;
12048;SDS011;6085;49.452;8.502;2022-12-26T00:30:18;3.25;;;2.60;;
12048;SDS011;6085;49.452;8.502;2022-12-26T00:34:21;4.50;;;2.80;;
12048;SDS011;6085;49.452;8.502;2022-12-26T00:38:23;3.15;;;2.40;;
12048;SDS011;6085;49.452;8.502;2022-12-26T00:42:25;3.33;;;2.58;;
12048;SDS011;6085;49.452;8.502;2022-12-26T00:46:26;2.80;;;2.47;;
12048;SDS011;6085;49.452;8.502;2022-12-26T00:50:30;3.25;;;2.30;;
12048;SDS011;6085;49.452;8.502;2022-12-26T00:54:32;3.05;;;2.15;;
12048;SDS011;6085;49.452;8.502;2022-12-26T00:58:33;3.60;;;2.33;;
12048;SDS011;6085;49.452;8.502;2022-12-26T01:02:35;3.25;;;2.40;;
12048;SDS011;6085;49.452;8.502;2022-12-26T01:06:41;2.75;;;2.20;;
12048;SDS011;6085;49.452;8.502;2022-12-26T01:10:44;2.55;;;2.20;;
12048;SDS011;6085;49.452;8.502;2022-12-26T01:14:47;2.28;;;2.08;;
12048;SDS011;6085;49.452;8.502;2022-12-26T01:18:48;4.50;;;2.40;;
12048;SDS011;6085;49.452;8.502;2022-12-26T01:22:51;2.70;;;1.88;;
12048;SDS011;6085;49.452;8.502;2022-12-26T01:26:54;3.13;;;2.50;;
12048;SDS011;6085;49.452;8.502;2022-12-26T01:30:59;2.92;;;2.47;;
12048;SDS011;6085;49.452;8.502;2022-12-26T01:35:01;2.38;;;2.17;;
12048;SDS011;6085;49.452;8.502;2022-12-26T01:39:05;3.35;;;2.22;;
12048;SDS011;6085;49.452;8.502;2022-12-26T01:43:08;2.75;;;2.50;;
12048;SDS011;6085;49.452;8.502;2022-12-26T01:47:12;2.45;;;2.20;;
12048;SDS011;6085;49.452;8.502;2022-12-26T01:51:14;4.20;;;2.92;;
12048;SDS011;6085;49.452;8.502;2022-12-26T01:55:18;2.67;;;2.28;;
12048;SDS011;6085;49.452;8.502;2022-12-26T01:59:23;2.55;;;2.35;;
12048;SDS011;6085;49.452;8.502;2022-12-26T02:03:28;2.78;;;2.22;;
12048;SDS011;6085;49.452;8.502;2022-12-26T02:07:47;3.92;;;2.17;;
12048;SDS011;6085;49.452;8.502;2022-12-26T02:11:50;2.60;;;2.40;;
12048;SDS011;6085;49.452;8.502;2022-12-26T02:15:57;2.17;;;2.08;;
12048;SDS011;6085;49.452;8.502;2022-12-26T02:19:59;2.47;;;2.28;;
12048;SDS011;6085;49.452;8.502;2022-12-26T02:24:29;2.40;;;2.20;;
12048;SDS011;6085;49.452;8.502;2022-12-26T02:33:32;2.58;;;2.22;;
12048;SDS011;6085;49.452;8.502;2022-12-26T02:37:47;2.80;;;2.60;;
12048;SDS011;6085;49.452;8.502;2022-12-26T02:42:02;3.10;;;2.47;;
12048;SDS011;6085;49.452;8.502;2022-12-26T02:46:12;3.05;;;2.58;;
12048;SDS011;6085;49.452;8.502;2022-12-26T02:50:45;3.42;;;2.42;;
12048;SDS011;6085;49.452;8.502;2022-12-26T02:55:13;3.88;;;2.50;;
12048;SDS011;6085;49.452;8.502;2022-12-26T02:59:39;4.57;;;2.28;;
12048;SDS011;6085;49.452;8.502;2022-12-26T03:04:05;4.18;;;2.40;;
12048;SDS011;6085;49.452;8.502;2022-12-26T03:08:32;2.60;;;2.25;;
12048;SDS011;6085;49.452;8.502;2022-12-26T03:12:55;2.47;;;2.28;;
12048;SDS011;6085;49.452;8.502;2022-12-26T03:17:11;2.92;;;2.03;;
12048;SDS011;6085;49.452;8.502;2022-12-26T03:21:22;2.30;;;2.10;;
12048;SDS011;6085;49.452;8.502;2022-12-26T03:25:29;2.35;;;2.00;;
12048;SDS011;6085;49.452;8.502;2022-12-26T03:29:58;2.45;;;2.25;;
12048;SDS011;6085;49.452;8.502;2022-12-26T03:34:20;3.58;;;2.20;;
12048;SDS011;6085;49.452;8.502;2022-12-26T03:38:23;2.33;;;2.13;;
12048;SDS011;6085;49.452;8.502;2022-12-26T03:42:30;2.78;;;2.53;;
12048;SDS011;6085;49.452;8.502;2022-12-26T03:46:59;2.50;;;2.30;;
12048;SDS011;6085;49.452;8.502;2022-12-26T03:51:30;3.65;;;2.45;;
12048;SDS011;6085;49.452;8.502;2022-12-26T03:55:54;2.80;;;2.42;;
12048;SDS011;6085;49.452;8.502;2022-12-26T04:00:22;3.17;;;2.30;;
12048;SDS011;6085;49.452;8.502;2022-12-26T04:04:43;5.38;;;2.55;;
12048;SDS011;6085;49.452;8.502;2022-12-26T04:09:06;3.47;;;2.30;;
12048;SDS011;6085;49.452;8.502;2022-12-26T04:13:31;2.50;;;2.30;;
12048;SDS011;6085;49.452;8.502;2022-12-26T04:18:01;4.10;;;2.25;;
12048;SDS011;6085;49.452;8.502;2022-12-26T04:22:28;3.50;;;2.53;;
12048;SDS011;6085;49.452;8.502;2022-12-26T04:26:55;2.03;;;1.92;;
12048;SDS011;6085;49.452;8.502;2022-12-26T04:31:20;4.28;;;2.25;;
12048;SDS011;6085;49.452;8.502;2022-12-26T04:35:46;3.20;;;2.30;;
12048;SDS011;6085;49.452;8.502;2022-12-26T04:40:09;3.03;;;2.33;;
12048;SDS011;6085;49.452;8.502;2022-12-26T04:44:35;3.88;;;2.50;;
12048;SDS011;6085;49.452;8.502;2022-12-26T04:48:40;2.50;;;2.30;;
12048;SDS011;6085;49.452;8.502;2022-12-26T04:53:02;2.55;;;2.13;;
12048;SDS011;6085;49.452;8.502;2022-12-26T04:57:04;2.20;;;2.00;;
12048;SDS011;6085;49.452;8.502;2022-12-26T05:01:06;3.88;;;2.40;;
12048;SDS011;6085;49.452;8.502;2022-12-26T05:05:25;4.63;;;2.60;;
12048;SDS011;6085;49.452;8.502;2022-12-26T05:09:46;2.45;;;2.17;;
12048;SDS011;6085;49.452;8.502;2022-12-26T05:13:51;2.00;;;1.90;;
12048;SDS011;6085;49.452;8.502;2022-12-26T05:17:53;4.10;;;2.30;;
12048;SDS011;6085;49.452;8.502;2022-12-26T05:22:12;4.32;;;2.40;;
12048;SDS011;6085;49.452;8.502;2022-12-26T05:26:33;3.13;;;2.10;;
12048;SDS011;6085;49.452;8.502;2022-12-26T05:30:52;3.95;;;2.22;;
12048;SDS011;6085;49.452;8.502;2022-12-26T05:34:54;1.98;;;1.80;;
12048;SDS011;6085;49.452;8.502;2022-12-26T05:38:56;2.50;;;2.30;;
12048;SDS011;6085;49.452;8.502;2022-12-26T05:42:59;2.58;;;2.20;;
12048;SDS011;6085;49.452;8.502;2022-12-26T05:47:01;2.22;;;2.03;;
12048;SDS011;6085;49.452;8.502;2022-12-26T05:51:03;3.60;;;2.38;;
12048;SDS011;6085;49.452;8.502;2022-12-26T05:55:05;3.65;;;2.60;;
12048;SDS011;6085;49.452;8.502;2022-12-26T05:59:08;2.60;;;2.08;;
12048;SDS011;6085;49.452;8.502;2022-12-26T06:03:10;2.33;;;2.10;;
12048;SDS011;6085;49.452;8.502;2022-12-26T06:07:12;2.88;;;2.25;;
12048;SDS011;6085;49.452;8.502;2022-12-26T06:11:14;2.20;;;2.00;;
12048;SDS011;6085;49.452;8.502;2022-12-26T06:15:18;2.45;;;2.10;;
12048;SDS011;6085;49.452;8.502;2022-12-26T06:19:19;3.80;;;2.20;;
12048;SDS011;6085;49.452;8.502;2022-12-26T06:23:21;2.30;;;2.10;;
12048;SDS011;6085;49.452;8.502;2022-12-26T06:27:23;2.58;;;2.03;;
12048;SDS011;6085;49.452;8.502;2022-12-26T06:31:26;3.05;;;2.35;;
12048;SDS011;6085;49.452;8.502;2022-12-26T06:35:28;2.70;;;2.30;;
12048;SDS011;6085;49.452;8.502;2022-12-26T06:39:30;2.65;;;2.20;;
12048;SDS011;6085;49.452;8.502;2022-12-26T06:43:32;3.72;;;2.40;;
12048;SDS011;6085;49.452;8.502;2022-12-26T06:47:35;2.95;;;2.30;;
12048;SDS011;6085;49.452;8.502;2022-12-26T06:51:37;2.72;;;2.30;;
12048;SDS011;6085;49.452;8.502;2022-12-26T06:55:39;3.88;;;2.40;;
12048;SDS011;6085;49.452;8.502;2022-12-26T06:59:40;3.05;;;2.40;;
12048;SDS011;6085;49.452;8.502;2022-12-26T07:03:44;2.45;;;2.22;;
12048;SDS011;6085;49.452;8.502;2022-12-26T07:07:49;2.50;;;2.30;;
12048;SDS011;6085;49.452;8.502;2022-12-26T07:11:51;2.90;;;2.33;;
12048;SDS011;6085;49.452;8.502;2022-12-26T07:15:57;3.42;;;2.55;;
12048;SDS011;6085;49.452;8.502;2022-12-26T07:20:00;3.75;;;2.67;;
12048;SDS011;6085;49.452;8.502;2022-12-26T07:24:02;4.10;;;2.67;;
12048;SDS011;6085;49.452;8.502;2022-12-26T07:28:04;2.55;;;2.15;;
12048;SDS011;6085;49.452;8.502;2022-12-26T07:32:06;2.60;;;2.40;;
12048;SDS011;6085;49.452;8.502;2022-12-26T07:36:09;3.67;;;2.50;;
12048;SDS011;6085;49.452;8.502;2022-12-26T07:40:11;2.67;;;2.47;;
12048;SDS011;6085;49.452;8.502;2022-12-26T07:44:13;3.63;;;2.58;;
12048;SDS011;6085;49.452;8.502;2022-12-26T07:48:15;4.90;;;2.53;;
12048;SDS011;6085;49.452;8.502;2022-12-26T07:52:18;2.60;;;2.40;;
12048;SDS011;6085;49.452;8.502;2022-12-26T07:56:20;2.65;;;2.45;;
12048;SDS011;6085;49.452;8.502;2022-12-26T08:00:22;2.80;;;2.60;;
12048;SDS011;6085;49.452;8.502;2022-12-26T08:04:24;3.58;;;2.72;;
12048;SDS011;6085;49.452;8.502;2022-12-26T08:08:27;2.65;;;2.35;;
12048;SDS011;6085;49.452;8.502;2022-12-26T08:12:31;3.00;;;2.70;;
12048;SDS011;6085;49.452;8.502;2022-12-26T08:16:33;3.28;;;2.80;;
12048;SDS011;6085;49.452;8.502;2022-12-26T08:20:35;4.07;;;2.67;;
12048;SDS011;6085;49.452;8.502;2022-12-26T08:24:38;3.30;;;2.60;;
12048;SDS011;6085;49.452;8.502;2022-12-26T08:28:40;4.50;;;2.92;;
12048;SDS011;6085;49.452;8.502;2022-12-26T08:32:42;3.08;;;2.80;;
12048;SDS011;6085;49.452;8.502;2022-12-26T08:36:44;3.03;;;2.72;;
12048;SDS011;6085;49.452;8.502;2022-12-26T08:40:52;4.65;;;3.30;;
12048;SDS011;6085;49.452;8.502;2022-12-26T08:44:56;3.95;;;3.15;;
12048;SDS011;6085;49.452;8.502;2022-12-26T08:48:58;4.40;;;2.90;;
12048;SDS011;6085;49.452;8.502;2022-12-26T08:53:00;4.05;;;3.10;;
12048;SDS011;6085;49.452;8.502;2022-12-26T08:57:03;6.00;;;3.60;;
12048;SDS011;6085;49.452;8.502;2022-12-26T09:01:05;3.75;;;3.38;;
12048;SDS011;6085;49.452;8.502;2022-12-26T09:05:09;3.67;;;3.15;;
12048;SDS011;6085;49.452;8.502;2022-12-26T09:09:11;4.20;;;3.50;;
12048;SDS011;6085;49.452;8.502;2022-12-26T09:13:14;3.15;;;2.85;;
12048;SDS011;6085;49.452;8.502;2022-12-26T09:17:18;2.97;;;2.67;;
12048;SDS011;6085;49.452;8.502;2022-12-26T09:21:20;3.08;;;2.78;;
12048;SDS011;6085;49.452;8.502;2022-12-26T09:25:22;3.80;;;3.05;;
12048;SDS011;6085;49.452;8.502;2022-12-26T09:29:27;3.33;;;2.88;;
12048;SDS011;6085;49.452;8.502;2022-12-26T09:33:29;3.17;;;2.67;;
12048;SDS011;6085;49.452;8.502;2022-12-26T09:37:32;2.70;;;2.50;;
12048;SDS011;6085;49.452;8.502;2022-12-26T09:41:42;2.72;;;2.53;;
12048;SDS011;6085;49.452;8.502;2022-12-26T09:45:57;3.00;;;2.40;;
12048;SDS011;6085;49.452;8.502;2022-12-26T09:50:09;2.72;;;2.20;;
12048;SDS011;6085;49.452;8.502;2022-12-26T09:54:14;3.00;;;2.50;;
12048;SDS011;6085;49.452;8.502;2022-12-26T09:58:22;2.15;;;1.90;;
12048;SDS011;6085;49.452;8.502;2022-12-26T10:02:28;3.45;;;2.10;;
12048;SDS011;6085;49.452;8.502;2022-12-26T10:06:32;1.85;;;1.75;;
12048;SDS011;6085;49.452;8.502;2022-12-26T10:10:39;1.50;;;1.30;;
12048;SDS011;6085;49.452;8.502;2022-12-26T10:14:52;3.03;;;1.90;;
12048;SDS011;6085;49.452;8.502;2022-12-26T10:19:01;1.80;;;1.70;;
12048;SDS011;6085;49.452;8.502;2022-12-26T10:23:27;1.65;;;1.55;;
12048;SDS011;6085;49.452;8.502;2022-12-26T10:27:33;1.73;;;1.63;;
12048;SDS011;6085;49.452;8.502;2022-12-26T10:31:42;3.42;;;1.92;;
12048;SDS011;6085;49.452;8.502;2022-12-26T10:35:48;2.85;;;1.60;;
12048;SDS011;6085;49.452;8.502;2022-12-26T10:39:50;1.80;;;1.70;;
12048;SDS011;6085;49.452;8.502;2022-12-26T10:43:56;1.95;;;1.80;;
12048;SDS011;6085;49.452;8.502;2022-12-26T10:47:58;1.95;;;1.75;;
12048;SDS011;6085;49.452;8.502;2022-12-26T10:52:01;1.70;;;1.60;;
12048;SDS011;6085;49.452;8.502;2022-12-26T10:56:04;1.92;;;1.70;;
12048;SDS011;6085;49.452;8.502;2022-12-26T11:00:12;1.85;;;1.60;;
12048;SDS011;6085;49.452;8.502;2022-12-26T11:04:18;1.70;;;1.60;;
12048;SDS011;6085;49.452;8.502;2022-12-26T11:08:24;1.80;;;1.70;;
12048;SDS011;6085;49.452;8.502;2022-12-26T11:12:29;1.75;;;1.63;;
12048;SDS011;6085;49.452;8.502;2022-12-26T11:16:38;1.60;;;1.50;;
12048;SDS011;6085;49.452;8.502;2022-12-26T11:20:40;1.65;;;1.55;;
12048;SDS011;6085;49.452;8.502;2022-12-26T11:24:44;1.60;;;1.50;;
12048;SDS011;6085;49.452;8.502;2022-12-26T11:28:46;2.72;;;1.80;;
12048;SDS011;6085;49.452;8.502;2022-12-26T11:32:48;2.03;;;1.83;;
12048;SDS011;6085;49.452;8.502;2022-12-26T11:36:52;1.80;;;1.70;;
12048;SDS011;6085;49.452;8.502;2022-12-26T11:40:55;2.13;;;2.00;;
12048;SDS011;6085;49.452;8.502;2022-12-26T11:45:11;2.08;;;1.88;;
12048;SDS011;6085;49.452;8.502;2022-12-26T11:49:18;2.42;;;1.85;;
12048;SDS011;6085;49.452;8.502;2022-12-26T11:53:24;2.20;;;2.00;;
12048;SDS011;6085;49.452;8.502;2022-12-26T11:57:28;2.33;;;2.13;;
12048;SDS011;6085;49.452;8.502;2022-12-26T12:01:31;3.08;;;1.77;;
12048;SDS011;6085;49.452;8.502;2022-12-26T12:05:36;2.05;;;1.88;;
12048;SDS011;6085;49.452;8.502;2022-12-26T12:09:43;2.45;;;1.90;;
12048;SDS011;6085;49.452;8.502;2022-12-26T12:14:00;3.13;;;2.60;;
12048;SDS011;6085;49.452;8.502;2022-12-26T12:18:15;1.75;;;1.65;;
12048;SDS011;6085;49.452;8.502;2022-12-26T12:22:34;1.50;;;1.40;;
12048;SDS011;6085;49.452;8.502;2022-12-26T12:26:53;1.30;;;1.20;;
12048;SDS011;6085;49.452;8.502;2022-12-26T12:31:04;1.90;;;1.55;;
12048;SDS011;6085;49.452;8.502;2022-12-26T12:35:21;1.75;;;1.50;;
12048;SDS011;6085;49.452;8.502;2022-12-26T12:39:34;2.25;;;1.30;;
12048;SDS011;6085;49.452;8.502;2022-12-26T12:43:48;1.73;;;1.60;;
12048;SDS011;6085;49.452;8.502;2022-12-26T12:48:02;1.52;;;1.42;;
12048;SDS011;6085;49.452;8.502;2022-12-26T12:52:19;1.80;;;1.70;;
12048;SDS011;6085;49.452;8.502;2022-12-26T12:56:32;2.47;;;1.30;;
12048;SDS011;6085;49.452;8.502;2022-12-26T13:00:39;2.53;;;1.70;;
12048;SDS011;6085;49.452;8.502;2022-12-26T13:04:46;1.80;;;1.70;;
12048;SDS011;6085;49.452;8.502;2022-12-26T13:08:52;2.10;;;1.90;;
12048;SDS011;6085;49.452;8.502;2022-12-26T13:12:56;1.80;;;1.70;;
12048;SDS011;6085;49.452;8.502;2022-12-26T13:17:05;2.00;;;1.90;;
12048;SDS011;6085;49.452;8.502;2022-12-26T13:21:12;2.50;;;1.83;;
12048;SDS011;6085;49.452;8.502;2022-12-26T13:25:15;1.73;;;1.63;;
12048;SDS011;6085;49.452;8.502;2022-12-26T13:29:19;1.70;;;1.60;;
12048;SDS011;6085;49.452;8.502;2022-12-26T13:33:35;1.67;;;1.58;;
12048;SDS011;6085;49.452;8.502;2022-12-26T13:42:18;2.63;;;2.35;;
12048;SDS011;6085;49.452;8.502;2022-12-26T13:46:54;1.80;;;1.70;;
12048;SDS011;6085;49.452;8.502;2022-12-26T13:50:59;1.90;;;1.80;;
12048;SDS011;6085;49.452;8.502;2022-12-26T13:59:36;2.38;;;1.60;;
12048;SDS011;6085;49.452;8.502;2022-12-26T14:03:47;2.75;;;1.40;;
12048;SDS011;6085;49.452;8.502;2022-12-26T14:08:02;1.90;;;1.60;;
12048;SDS011;6085;49.452;8.502;2022-12-26T14:16:46;1.60;;;1.50;;
12048;SDS011;6085;49.452;8.502;2022-12-26T14:25:45;2.63;;;1.30;;
12048;SDS011;6085;49.452;8.502;2022-12-26T14:29:58;1.58;;;1.10;;
12048;SDS011;6085;49.452;8.502;2022-12-26T14:34:23;1.17;;;1.08;;
12048;SDS011;6085;49.452;8.502;2022-12-26T14:38:37;1.40;;;1.30;;
12048;SDS011;6085;49.452;8.502;2022-12-26T14:47:13;1.77;;;1.10;;
12048;SDS011;6085;49.452;8.502;2022-12-26T14:51:37;1.50;;;1.40;;
12048;SDS011;6085;49.452;8.502;2022-12-26T14:55:49;1.60;;;1.20;;
12048;SDS011;6085;49.452;8.502;2022-12-26T15:00:11;1.15;;;1.13;;
12048;SDS011;6085;49.452;8.502;2022-12-26T15:09:09;1.50;;;1.40;;
12048;SDS011;6085;49.452;8.502;2022-12-26T15:13:27;1.60;;;1.50;;
12048;SDS011;6085;49.452;8.502;2022-12-26T15:17:44;1.70;;;1.10;;
12048;SDS011;6085;49.452;8.502;2022-12-26T15:22:01;1.52;;;1.42;;
12048;SDS011;6085;49.452;8.502;2022-12-26T15:26:26;1.52;;;1.27;;
12048;SDS011;6085;49.452;8.502;2022-12-26T15:35:29;3.65;;;1.95;;
12048;SDS011;6085;49.452;8.502;2022-12-26T15:39:37;1.33;;;1.23;;
12048;SDS011;6085;49.452;8.502;2022-12-26T15:43:53;1.83;;;1.73;;
12048;SDS011;6085;49.452;8.502;2022-12-26T15:48:11;1.65;;;1.55;;
12048;SDS011;6085;49.452;8.502;2022-12-26T15:52:27;1.90;;;1.58;;
12048;SDS011;6085;49.452;8.502;2022-12-26T15:56:44;2.08;;;1.80;;
12048;SDS011;6085;49.452;8.502;2022-12-26T16:00:55;2.78;;;1.55;;
12048;SDS011;6085;49.452;8.502;2022-12-26T16:04:59;1.83;;;1.60;;
12048;SDS011;6085;49.452;8.502;2022-12-26T16:09:30;2.00;;;1.70;;
12048;SDS011;6085;49.452;8.502;2022-12-26T16:13:48;2.33;;;2.10;;
12048;SDS011;6085;49.452;8.502;2022-12-26T16:22:28;6.55;;;3.80;;
12048;SDS011;6085;49.452;8.502;2022-12-26T16:26:46;6.00;;;3.40;;
12048;SDS011;6085;49.452;8.502;2022-12-26T16:30:48;4.88;;;3.20;;
12048;SDS011;6085;49.452;8.502;2022-12-26T16:34:50;5.25;;;4.43;;
12048;SDS011;6085;49.452;8.502;2022-12-26T16:38:54;5.20;;;3.45;;
12048;SDS011;6085;49.452;8.502;2022-12-26T16:42:58;1.60;;;1.50;;
12048;SDS011;6085;49.452;8.502;2022-12-26T16:47:02;3.17;;;1.85;;
12048;SDS011;6085;49.452;8.502;2022-12-26T16:51:29;2.60;;;2.30;;
12048;SDS011;6085;49.452;8.502;2022-12-26T16:55:43;4.32;;;3.53;;
12048;SDS011;6085;49.452;8.502;2022-12-26T16:59:48;3.33;;;1.70;;
12048;SDS011;6085;49.452;8.502;2022-12-26T17:03:53;2.70;;;1.58;;
12048;SDS011;6085;49.452;8.502;2022-12-26T17:07:59;4.25;;;3.28;;
12048;SDS011;6085;49.452;8.502;2022-12-26T17:12:04;1.33;;;1.20;;
12048;SDS011;6085;49.452;8.502;2022-12-26T17:16:07;1.90;;;1.70;;
12048;SDS011;6085;49.452;8.502;2022-12-26T17:20:27;2.47;;;2.28;;
12048;SDS011;6085;49.452;8.502;2022-12-26T17:24:34;1.52;;;1.25;;
12048;SDS011;6085;49.452;8.502;2022-12-26T17:28:38;1.08;;;1.00;;
12048;SDS011;6085;49.452;8.502;2022-12-26T17:32:41;1.33;;;1.23;;
12048;SDS011;6085;49.452;8.502;2022-12-26T17:36:45;1.48;;;1.23;;
12048;SDS011;6085;49.452;8.502;2022-12-26T17:40:47;1.92;;;1.25;;
12048;SDS011;6085;49.452;8.502;2022-12-26T17:44:53;1.60;;;1.10;;
12048;SDS011;6085;49.452;8.502;2022-12-26T17:48:56;1.42;;;1.25;;
12048;SDS011;6085;49.452;8.502;2022-12-26T17:53:02;1.50;;;1.00;;
12048;SDS011;6085;49.452;8.502;2022-12-26T17:57:07;1.13;;;0.95;;
12048;SDS011;6085;49.452;8.502;2022-12-26T18:01:17;0.80;;;0.80;;
12048;SDS011;6085;49.452;8.502;2022-12-26T18:05:20;1.73;;;1.33;;
12048;SDS011;6085;49.452;8.502;2022-12-26T18:09:23;1.40;;;1.02;;
12048;SDS011;6085;49.452;8.502;2022-12-26T18:13:27;1.67;;;0.75;;
12048;SDS011;6085;49.452;8.502;2022-12-26T18:17:31;1.10;;;0.70;;
12048;SDS011;6085;49.452;8.502;2022-12-26T18:21:33;0.60;;;0.60;;
12048;SDS011;6085;49.452;8.502;2022-12-26T18:25:35;0.60;;;0.60;;
12048;SDS011;6085;49.452;8.502;2022-12-26T18:29:38;0.45;;;0.45;;
12048;SDS011;6085;49.452;8.502;2022-12-26T18:33:42;0.80;;;0.65;;
12048;SDS011;6085;49.452;8.502;2022-12-26T18:37:45;0.40;;;0.40;;
12048;SDS011;6085;49.452;8.502;2022-12-26T18:41:48;2.45;;;0.80;;
12048;SDS011;6085;49.452;8.502;2022-12-26T18:45:50;1.00;;;0.90;;
12048;SDS011;6085;49.452;8.502;2022-12-26T18:49:53;1.10;;;0.80;;
12048;SDS011;6085;49.452;8.502;2022-12-26T18:53:55;1.08;;;0.75;;
12048;SDS011;6085;49.452;8.502;2022-12-26T18:57:57;0.95;;;0.80;;
12048;SDS011;6085;49.452;8.502;2022-12-26T19:01:59;0.75;;;0.60;;
12048;SDS011;6085;49.452;8.502;2022-12-26T19:06:02;2.17;;;0.90;;
12048;SDS011;6085;49.452;8.502;2022-12-26T19:10:05;0.88;;;0.80;;
12048;SDS011;6085;49.452;8.502;2022-12-26T19:14:14;1.20;;;0.60;;
12048;SDS011;6085;49.452;8.502;2022-12-26T19:18:18;1.65;;;0.98;;
12048;SDS011;6085;49.452;8.502;2022-12-26T19:22:21;0.52;;;0.52;;
12048;SDS011;6085;49.452;8.502;2022-12-26T19:26:23;0.70;;;0.70;;
12048;SDS011;6085;49.452;8.502;2022-12-26T19:30:25;2.15;;;0.82;;
12048;SDS011;6085;49.452;8.502;2022-12-26T19:34:26;1.45;;;1.10;;
12048;SDS011;6085;49.452;8.502;2022-12-26T19:38:30;1.48;;;0.68;;
12048;SDS011;6085;49.452;8.502;2022-12-26T19:42:32;1.20;;;0.98;;
12048;SDS011;6085;49.452;8.502;2022-12-26T19:46:36;1.13;;;0.90;;
12048;SDS011;6085;49.452;8.502;2022-12-26T19:50:38;0.63;;;0.63;;
12048;SDS011;6085;49.452;8.502;2022-12-26T19:54:41;1.48;;;0.77;;
12048;SDS011;6085;49.452;8.502;2022-12-26T19:58:43;0.95;;;0.95;;
12048;SDS011;6085;49.452;8.502;2022-12-26T20:02:45;1.23;;;0.90;;
12048;SDS011;6085;49.452;8.502;2022-12-26T20:06:47;1.23;;;1.13;;
12048;SDS011;6085;49.452;8.502;2022-12-26T20:10:50;3.13;;;1.20;;
12048;SDS011;6085;49.452;8.502;2022-12-26T20:14:52;0.80;;;0.80;;
12048;SDS011;6085;49.452;8.502;2022-12-26T20:18:54;1.63;;;0.90;;
12048;SDS011;6085;49.452;8.502;2022-12-26T20:22:56;0.85;;;0.85;;
12048;SDS011;6085;49.452;8.502;2022-12-26T20:26:59;1.17;;;0.80;;
12048;SDS011;6085;49.452;8.502;2022-12-26T20:31:02;0.77;;;0.70;;
12048;SDS011;6085;49.452;8.502;2022-12-26T20:35:06;0.70;;;0.70;;
12048;SDS011;6085;49.452;8.502;2022-12-26T20:39:09;0.40;;;0.40;;
12048;SDS011;6085;49.452;8.502;2022-12-26T20:43:15;0.57;;;0.57;;
12048;SDS011;6085;49.452;8.502;2022-12-26T20:47:16;0.98;;;0.88;;
12048;SDS011;6085;49.452;8.502;2022-12-26T20:51:19;1.95;;;0.80;;
12048;SDS011;6085;49.452;8.502;2022-12-26T20:55:23;0.40;;;0.40;;
12048;SDS011;6085;49.452;8.502;2022-12-26T20:59:26;0.50;;;0.50;;
12048;SDS011;6085;49.452;8.502;2022-12-26T21:03:28;1.05;;;0.60;;
12048;SDS011;6085;49.452;8.502;2022-12-26T21:07:30;1.83;;;0.70;;
12048;SDS011;6085;49.452;8.502;2022-12-26T21:11:33;2.35;;;0.82;;
12048;SDS011;6085;49.452;8.502;2022-12-26T21:15:39;2.90;;;0.80;;
12048;SDS011;6085;49.452;8.502;2022-12-26T21:19:40;1.48;;;0.90;;
12048;SDS011;6085;49.452;8.502;2022-12-26T21:23:42;0.50;;;0.50;;
12048;SDS011;6085;49.452;8.502;2022-12-26T21:27:44;1.52;;;0.80;;
12048;SDS011;6085;49.452;8.502;2022-12-26T21:31:48;1.17;;;0.80;;
12048;SDS011;6085;49.452;8.502;2022-12-26T21:35:50;2.47;;;0.80;;
12048;SDS011;6085;49.452;8.502;2022-12-26T21:39:53;1.08;;;1.05;;
12048;SDS011;6085;49.452;8.502;2022-12-26T21:43:55;2.75;;;0.90;;
12048;SDS011;6085;49.452;8.502;2022-12-26T21:47:58;1.17;;;1.15;;
12048;SDS011;6085;49.452;8.502;2022-12-26T21:52:00;2.97;;;1.10;;
12048;SDS011;6085;49.452;8.502;2022-12-26T21:56:03;2.15;;;1.25;;
12048;SDS011;6085;49.452;8.502;2022-12-26T22:00:05;2.70;;;0.85;;
12048;SDS011;6085;49.452;8.502;2022-12-26T22:04:10;2.28;;;1.20;;
12048;SDS011;6085;49.452;8.502;2022-12-26T22:08:22;1.48;;;1.30;;
12048;SDS011;6085;49.452;8.502;2022-12-26T22:12:24;1.80;;;0.60;;
12048;SDS011;6085;49.452;8.502;2022-12-26T22:16:46;4.05;;;1.13;;
12048;SDS011;6085;49.452;8.502;2022-12-26T22:20:52;2.15;;;1.23;;
12048;SDS011;6085;49.452;8.502;2022-12-26T22:24:54;1.35;;;0.65;;
12048;SDS011;6085;49.452;8.502;2022-12-26T22:28:56;1.33;;;0.70;;
12048;SDS011;6085;49.452;8.502;2022-12-26T22:32:58;1.40;;;1.10;;
12048;SDS011;6085;49.452;8.502;2022-12-26T22:37:02;0.75;;;0.75;;
12048;SDS011;6085;49.452;8.502;2022-12-26T22:41:07;1.38;;;0.70;;
12048;SDS011;6085;49.452;8.502;2022-12-26T22:45:10;1.30;;;0.82;;
12048;SDS011;6085;49.452;8.502;2022-12-26T22:49:12;0.82;;;0.75;;
12048;SDS011;6085;49.452;8.502;2022-12-26T22:53:15;1.25;;;0.70;;
12048;SDS011;6085;49.452;8.502;2022-12-26T22:57:17;1.35;;;0.63;;
12048;SDS011;6085;49.452;8.502;2022-12-26T23:01:21;2.00;;;1.00;;
12048;SDS011;6085;49.452;8.502;2022-12-26T23:05:23;2.83;;;0.90;;
12048;SDS011;6085;49.452;8.502;2022-12-26T23:09:27;0.88;;;0.88;;
12048;SDS011;6085;49.452;8.502;2022-12-26T23:13:29;1.73;;;0.70;;
12048;SDS011;6085;49.452;8.502;2022-12-26T23:17:32;0.70;;;0.70;;
12048;SDS011;6085;49.452;8.502;2022-12-26T23:21:55;1.08;;;0.60;;
12048;SDS011;6085;49.452;8.502;2022-12-26T23:26:00;0.60;;;0.60;;
12048;SDS011;6085;49.452;8.502;2022-12-26T23:30:02;1.30;;;0.68;;
12048;SDS011;6085;49.452;8.502;2022-12-26T23:34:19;1.77;;;0.68;;
12048;SDS011;6085;49.452;8.502;2022-12-26T23:38:21;0.65;;;0.55;;
12048;SDS011;6085;49.452;8.502;2022-12-26T23:42:25;1.95;;;0.60;;
12048;SDS011;6085;49.452;8.502;2022-12-26T23:46:27;1.17;;;0.40;;
12048;SDS011;6085;49.452;8.502;2022-12-26T23:50:29;2.13;;;0.68;;
12048;SDS011;6085;49.452;8.502;2022-12-26T23:54:30;0.82;;;0.50;;
12048;SDS011;6085;49.452;8.502;2022-12-26T23:58:34;0.40;;;0.40;;
